sensor_id;sensor_type;location;lat;lon;timestamp;P1;durP1;ratioP1;P2;durP2;ratioP2
33152;SDS011;19509;43.862;26.176;2024-03-17T00:01:04;1.50;;;1.50;;
33152;SDS011;19509;43.862;26.176;2024-03-17T00:03:30;1.50;;;1.50;;
33152;SDS011;19509;43.862;26.176;2024-03-17T00:05:59;1.63;;;1.63;;
33152;SDS011;19509;43.862;26.176;2024-03-17T00:08:25;1.30;;;1.30;;
33152;SDS011;19509;43.862;26.176;2024-03-17T00:10:51;1.67;;;1.67;;
33152;SDS011;19509;43.862;26.176;2024-03-17T00:13:16;1.67;;;1.67;;
33152;SDS011;19509;43.862;26.176;2024-03-17T00:15:42;1.60;;;1.60;;
33152;SDS011;19509;43.862;26.176;2024-03-17T00:18:07;1.53;;;1.53;;
33152;SDS011;19509;43.862;26.176;2024-03-17T00:20:33;1.20;;;1.20;;
33152;SDS011;19509;43.862;26.176;2024-03-17T00:22:59;1.47;;;1.47;;
33152;SDS011;19509;43.862;26.176;2024-03-17T00:25:25;1.40;;;1.40;;
33152;SDS011;19509;43.862;26.176;2024-03-17T00:27:50;1.40;;;1.40;;
33152;SDS011;19509;43.862;26.176;2024-03-17T00:30:16;1.37;;;1.37;;
33152;SDS011;19509;43.862;26.176;2024-03-17T00:32:41;1.40;;;1.40;;
33152;SDS011;19509;43.862;26.176;2024-03-17T00:35:07;1.40;;;1.40;;
33152;SDS011;19509;43.862;26.176;2024-03-17T00:37:34;1.40;;;1.40;;
33152;SDS011;19509;43.862;26.176;2024-03-17T00:40:02;1.40;;;1.40;;
33152;SDS011;19509;43.862;26.176;2024-03-17T00:42:28;1.37;;;1.37;;
33152;SDS011;19509;43.862;26.176;2024-03-17T00:44:54;1.43;;;1.43;;
33152;SDS011;19509;43.862;26.176;2024-03-17T00:47:20;1.40;;;1.40;;
33152;SDS011;19509;43.862;26.176;2024-03-17T00:49:45;1.37;;;1.37;;
33152;SDS011;19509;43.862;26.176;2024-03-17T00:52:10;1.40;;;1.40;;
33152;SDS011;19509;43.862;26.176;2024-03-17T00:54:36;1.47;;;1.47;;
33152;SDS011;19509;43.862;26.176;2024-03-17T00:57:01;1.53;;;1.53;;
33152;SDS011;19509;43.862;26.176;2024-03-17T00:59:27;1.30;;;1.30;;
33152;SDS011;19509;43.862;26.176;2024-03-17T01:01:52;1.60;;;1.60;;
33152;SDS011;19509;43.862;26.176;2024-03-17T01:04:18;1.80;;;1.80;;
33152;SDS011;19509;43.862;26.176;2024-03-17T01:06:43;1.43;;;1.43;;
33152;SDS011;19509;43.862;26.176;2024-03-17T01:09:09;1.60;;;1.60;;
33152;SDS011;19509;43.862;26.176;2024-03-17T01:11:34;1.60;;;1.60;;
33152;SDS011;19509;43.862;26.176;2024-03-17T01:14:00;1.37;;;1.37;;
33152;SDS011;19509;43.862;26.176;2024-03-17T01:16:25;1.40;;;1.40;;
33152;SDS011;19509;43.862;26.176;2024-03-17T01:18:51;1.50;;;1.50;;
33152;SDS011;19509;43.862;26.176;2024-03-17T01:21:16;1.60;;;1.60;;
33152;SDS011;19509;43.862;26.176;2024-03-17T01:23:42;1.40;;;1.40;;
33152;SDS011;19509;43.862;26.176;2024-03-17T01:26:07;1.40;;;1.40;;
33152;SDS011;19509;43.862;26.176;2024-03-17T01:28:33;1.30;;;1.30;;
33152;SDS011;19509;43.862;26.176;2024-03-17T01:30:58;1.43;;;1.43;;
33152;SDS011;19509;43.862;26.176;2024-03-17T01:33:23;1.67;;;1.67;;
33152;SDS011;19509;43.862;26.176;2024-03-17T01:35:49;1.00;;;1.00;;
33152;SDS011;19509;43.862;26.176;2024-03-17T01:38:14;1.33;;;1.33;;
33152;SDS011;19509;43.862;26.176;2024-03-17T01:40:40;1.37;;;1.37;;
33152;SDS011;19509;43.862;26.176;2024-03-17T01:43:06;1.40;;;1.40;;
33152;SDS011;19509;43.862;26.176;2024-03-17T01:45:35;1.60;;;1.60;;
33152;SDS011;19509;43.862;26.176;2024-03-17T01:48:01;1.80;;;1.80;;
33152;SDS011;19509;43.862;26.176;2024-03-17T01:50:35;1.50;;;1.50;;
33152;SDS011;19509;43.862;26.176;2024-03-17T01:53:02;1.80;;;1.80;;
33152;SDS011;19509;43.862;26.176;2024-03-17T01:55:29;1.57;;;1.57;;
33152;SDS011;19509;43.862;26.176;2024-03-17T01:57:55;1.77;;;1.77;;
33152;SDS011;19509;43.862;26.176;2024-03-17T02:00:21;1.60;;;1.60;;
33152;SDS011;19509;43.862;26.176;2024-03-17T02:02:46;1.27;;;1.27;;
33152;SDS011;19509;43.862;26.176;2024-03-17T02:05:12;1.50;;;1.50;;
33152;SDS011;19509;43.862;26.176;2024-03-17T02:07:37;1.60;;;1.60;;
33152;SDS011;19509;43.862;26.176;2024-03-17T02:10:02;1.70;;;1.70;;
33152;SDS011;19509;43.862;26.176;2024-03-17T02:12:31;1.30;;;1.30;;
33152;SDS011;19509;43.862;26.176;2024-03-17T02:14:57;1.50;;;1.50;;
33152;SDS011;19509;43.862;26.176;2024-03-17T02:17:23;1.40;;;1.40;;
33152;SDS011;19509;43.862;26.176;2024-03-17T02:19:50;1.83;;;1.83;;
33152;SDS011;19509;43.862;26.176;2024-03-17T02:22:15;1.40;;;1.40;;
33152;SDS011;19509;43.862;26.176;2024-03-17T02:24:42;1.30;;;1.30;;
33152;SDS011;19509;43.862;26.176;2024-03-17T02:27:07;1.50;;;1.50;;
33152;SDS011;19509;43.862;26.176;2024-03-17T02:29:33;1.60;;;1.60;;
33152;SDS011;19509;43.862;26.176;2024-03-17T02:31:58;1.67;;;1.67;;
33152;SDS011;19509;43.862;26.176;2024-03-17T02:34:23;1.50;;;1.50;;
33152;SDS011;19509;43.862;26.176;2024-03-17T02:36:49;1.40;;;1.40;;
33152;SDS011;19509;43.862;26.176;2024-03-17T02:39:14;1.17;;;1.17;;
33152;SDS011;19509;43.862;26.176;2024-03-17T02:41:58;1.40;;;1.40;;
33152;SDS011;19509;43.862;26.176;2024-03-17T02:44:24;1.40;;;1.40;;
33152;SDS011;19509;43.862;26.176;2024-03-17T02:46:49;1.50;;;1.50;;
33152;SDS011;19509;43.862;26.176;2024-03-17T02:49:15;1.60;;;1.60;;
33152;SDS011;19509;43.862;26.176;2024-03-17T02:51:43;1.40;;;1.40;;
33152;SDS011;19509;43.862;26.176;2024-03-17T02:54:08;1.67;;;1.67;;
33152;SDS011;19509;43.862;26.176;2024-03-17T02:56:34;1.80;;;1.80;;
33152;SDS011;19509;43.862;26.176;2024-03-17T02:58:59;1.50;;;1.50;;
33152;SDS011;19509;43.862;26.176;2024-03-17T03:01:25;1.47;;;1.47;;
33152;SDS011;19509;43.862;26.176;2024-03-17T03:03:50;1.40;;;1.40;;
33152;SDS011;19509;43.862;26.176;2024-03-17T03:06:15;1.60;;;1.60;;
33152;SDS011;19509;43.862;26.176;2024-03-17T03:08:44;1.40;;;1.40;;
33152;SDS011;19509;43.862;26.176;2024-03-17T03:11:13;1.57;;;1.57;;
33152;SDS011;19509;43.862;26.176;2024-03-17T03:13:39;1.40;;;1.40;;
33152;SDS011;19509;43.862;26.176;2024-03-17T03:16:08;1.50;;;1.50;;
33152;SDS011;19509;43.862;26.176;2024-03-17T03:18:37;1.53;;;1.53;;
33152;SDS011;19509;43.862;26.176;2024-03-17T03:21:03;1.40;;;1.40;;
33152;SDS011;19509;43.862;26.176;2024-03-17T03:23:28;1.50;;;1.50;;
33152;SDS011;19509;43.862;26.176;2024-03-17T03:25:57;1.40;;;1.40;;
33152;SDS011;19509;43.862;26.176;2024-03-17T03:28:23;1.53;;;1.53;;
33152;SDS011;19509;43.862;26.176;2024-03-17T03:30:48;1.40;;;1.40;;
33152;SDS011;19509;43.862;26.176;2024-03-17T03:33:14;1.70;;;1.70;;
33152;SDS011;19509;43.862;26.176;2024-03-17T03:35:39;1.60;;;1.60;;
33152;SDS011;19509;43.862;26.176;2024-03-17T03:38:05;1.80;;;1.80;;
33152;SDS011;19509;43.862;26.176;2024-03-17T03:40:31;1.80;;;1.80;;
33152;SDS011;19509;43.862;26.176;2024-03-17T03:42:57;1.60;;;1.60;;
33152;SDS011;19509;43.862;26.176;2024-03-17T03:45:23;1.53;;;1.53;;
33152;SDS011;19509;43.862;26.176;2024-03-17T03:47:49;1.30;;;1.30;;
33152;SDS011;19509;43.862;26.176;2024-03-17T03:50:15;1.60;;;1.60;;
33152;SDS011;19509;43.862;26.176;2024-03-17T03:52:40;1.60;;;1.60;;
33152;SDS011;19509;43.862;26.176;2024-03-17T03:55:07;1.40;;;1.40;;
33152;SDS011;19509;43.862;26.176;2024-03-17T03:57:35;1.53;;;1.53;;
33152;SDS011;19509;43.862;26.176;2024-03-17T04:00:02;1.63;;;1.63;;
33152;SDS011;19509;43.862;26.176;2024-03-17T04:02:37;1.43;;;1.43;;
33152;SDS011;19509;43.862;26.176;2024-03-17T04:05:02;1.47;;;1.47;;
33152;SDS011;19509;43.862;26.176;2024-03-17T04:07:29;1.30;;;1.30;;
33152;SDS011;19509;43.862;26.176;2024-03-17T04:09:54;1.50;;;1.50;;
33152;SDS011;19509;43.862;26.176;2024-03-17T04:12:20;1.43;;;1.43;;
33152;SDS011;19509;43.862;26.176;2024-03-17T04:14:45;1.37;;;1.37;;
33152;SDS011;19509;43.862;26.176;2024-03-17T04:17:11;1.40;;;1.40;;
33152;SDS011;19509;43.862;26.176;2024-03-17T04:19:37;1.80;;;1.80;;
33152;SDS011;19509;43.862;26.176;2024-03-17T04:22:02;1.50;;;1.50;;
33152;SDS011;19509;43.862;26.176;2024-03-17T04:24:28;1.50;;;1.50;;
33152;SDS011;19509;43.862;26.176;2024-03-17T04:26:53;1.47;;;1.47;;
33152;SDS011;19509;43.862;26.176;2024-03-17T04:29:19;1.43;;;1.43;;
33152;SDS011;19509;43.862;26.176;2024-03-17T04:31:45;1.47;;;1.47;;
33152;SDS011;19509;43.862;26.176;2024-03-17T04:34:14;1.50;;;1.50;;
33152;SDS011;19509;43.862;26.176;2024-03-17T04:36:39;1.40;;;1.40;;
33152;SDS011;19509;43.862;26.176;2024-03-17T04:39:05;1.97;;;1.30;;
33152;SDS011;19509;43.862;26.176;2024-03-17T04:41:33;1.40;;;1.40;;
33152;SDS011;19509;43.862;26.176;2024-03-17T04:43:58;1.30;;;1.30;;
33152;SDS011;19509;43.862;26.176;2024-03-17T04:46:24;1.73;;;1.73;;
33152;SDS011;19509;43.862;26.176;2024-03-17T04:48:51;1.57;;;1.50;;
33152;SDS011;19509;43.862;26.176;2024-03-17T04:51:17;1.20;;;1.20;;
33152;SDS011;19509;43.862;26.176;2024-03-17T04:53:43;1.30;;;1.30;;
33152;SDS011;19509;43.862;26.176;2024-03-17T04:56:08;1.30;;;1.30;;
33152;SDS011;19509;43.862;26.176;2024-03-17T04:58:34;1.20;;;1.20;;
33152;SDS011;19509;43.862;26.176;2024-03-17T05:01:08;1.60;;;1.60;;
33152;SDS011;19509;43.862;26.176;2024-03-17T05:03:34;1.33;;;1.33;;
33152;SDS011;19509;43.862;26.176;2024-03-17T05:06:00;1.33;;;1.33;;
33152;SDS011;19509;43.862;26.176;2024-03-17T05:08:26;1.40;;;1.40;;
33152;SDS011;19509;43.862;26.176;2024-03-17T05:11:02;1.40;;;1.40;;
33152;SDS011;19509;43.862;26.176;2024-03-17T05:13:30;1.20;;;1.20;;
33152;SDS011;19509;43.862;26.176;2024-03-17T05:15:56;1.27;;;1.27;;
33152;SDS011;19509;43.862;26.176;2024-03-17T05:18:22;1.30;;;1.30;;
33152;SDS011;19509;43.862;26.176;2024-03-17T05:21:09;1.23;;;1.23;;
33152;SDS011;19509;43.862;26.176;2024-03-17T05:23:35;1.17;;;1.17;;
33152;SDS011;19509;43.862;26.176;2024-03-17T05:26:01;1.07;;;1.07;;
33152;SDS011;19509;43.862;26.176;2024-03-17T05:28:27;1.10;;;1.10;;
33152;SDS011;19509;43.862;26.176;2024-03-17T05:30:53;1.20;;;1.20;;
33152;SDS011;19509;43.862;26.176;2024-03-17T05:33:18;1.20;;;1.20;;
33152;SDS011;19509;43.862;26.176;2024-03-17T05:35:51;1.27;;;1.27;;
33152;SDS011;19509;43.862;26.176;2024-03-17T05:38:18;1.30;;;1.30;;
33152;SDS011;19509;43.862;26.176;2024-03-17T05:40:44;1.00;;;1.00;;
33152;SDS011;19509;43.862;26.176;2024-03-17T05:43:10;1.00;;;1.00;;
33152;SDS011;19509;43.862;26.176;2024-03-17T05:45:35;1.03;;;1.03;;
33152;SDS011;19509;43.862;26.176;2024-03-17T05:48:01;1.20;;;1.20;;
33152;SDS011;19509;43.862;26.176;2024-03-17T05:50:30;1.07;;;1.07;;
33152;SDS011;19509;43.862;26.176;2024-03-17T05:52:56;1.13;;;1.13;;
33152;SDS011;19509;43.862;26.176;2024-03-17T05:55:21;0.90;;;0.90;;
33152;SDS011;19509;43.862;26.176;2024-03-17T05:57:47;0.90;;;0.90;;
33152;SDS011;19509;43.862;26.176;2024-03-17T06:00:12;1.20;;;1.20;;
33152;SDS011;19509;43.862;26.176;2024-03-17T06:02:40;1.20;;;1.20;;
33152;SDS011;19509;43.862;26.176;2024-03-17T06:05:05;1.17;;;1.17;;
33152;SDS011;19509;43.862;26.176;2024-03-17T06:07:35;1.10;;;1.10;;
33152;SDS011;19509;43.862;26.176;2024-03-17T06:10:00;1.20;;;1.20;;
33152;SDS011;19509;43.862;26.176;2024-03-17T06:12:26;1.30;;;1.30;;
33152;SDS011;19509;43.862;26.176;2024-03-17T06:14:51;1.30;;;1.30;;
33152;SDS011;19509;43.862;26.176;2024-03-17T06:17:17;1.40;;;1.40;;
33152;SDS011;19509;43.862;26.176;2024-03-17T06:19:42;1.10;;;1.10;;
33152;SDS011;19509;43.862;26.176;2024-03-17T06:22:08;1.20;;;1.20;;
33152;SDS011;19509;43.862;26.176;2024-03-17T06:24:34;1.40;;;1.40;;
33152;SDS011;19509;43.862;26.176;2024-03-17T06:26:59;1.43;;;1.43;;
33152;SDS011;19509;43.862;26.176;2024-03-17T06:29:24;1.27;;;1.27;;
33152;SDS011;19509;43.862;26.176;2024-03-17T06:31:50;1.50;;;1.50;;
33152;SDS011;19509;43.862;26.176;2024-03-17T06:34:15;1.50;;;1.50;;
33152;SDS011;19509;43.862;26.176;2024-03-17T06:36:41;1.50;;;1.50;;
33152;SDS011;19509;43.862;26.176;2024-03-17T06:39:07;1.33;;;1.33;;
33152;SDS011;19509;43.862;26.176;2024-03-17T06:41:32;1.33;;;1.33;;
33152;SDS011;19509;43.862;26.176;2024-03-17T06:43:58;1.40;;;1.40;;
33152;SDS011;19509;43.862;26.176;2024-03-17T06:46:24;1.33;;;1.33;;
33152;SDS011;19509;43.862;26.176;2024-03-17T06:48:50;1.27;;;1.27;;
33152;SDS011;19509;43.862;26.176;2024-03-17T06:51:16;1.40;;;1.40;;
33152;SDS011;19509;43.862;26.176;2024-03-17T06:53:42;1.23;;;1.23;;
33152;SDS011;19509;43.862;26.176;2024-03-17T06:56:07;1.30;;;1.30;;
33152;SDS011;19509;43.862;26.176;2024-03-17T06:58:33;1.30;;;1.30;;
33152;SDS011;19509;43.862;26.176;2024-03-17T07:00:59;1.30;;;1.30;;
33152;SDS011;19509;43.862;26.176;2024-03-17T07:03:27;1.10;;;1.10;;
33152;SDS011;19509;43.862;26.176;2024-03-17T07:05:57;1.40;;;1.40;;
33152;SDS011;19509;43.862;26.176;2024-03-17T07:08:23;1.27;;;1.27;;
33152;SDS011;19509;43.862;26.176;2024-03-17T07:11:01;1.10;;;1.10;;
33152;SDS011;19509;43.862;26.176;2024-03-17T07:13:28;1.10;;;1.10;;
33152;SDS011;19509;43.862;26.176;2024-03-17T07:15:54;1.07;;;1.07;;
33152;SDS011;19509;43.862;26.176;2024-03-17T07:18:19;1.07;;;1.07;;
33152;SDS011;19509;43.862;26.176;2024-03-17T07:20:44;1.10;;;1.10;;
33152;SDS011;19509;43.862;26.176;2024-03-17T07:23:12;1.00;;;1.00;;
33152;SDS011;19509;43.862;26.176;2024-03-17T07:25:38;1.00;;;1.00;;
33152;SDS011;19509;43.862;26.176;2024-03-17T07:28:03;1.20;;;1.20;;
33152;SDS011;19509;43.862;26.176;2024-03-17T07:30:29;1.10;;;1.10;;
33152;SDS011;19509;43.862;26.176;2024-03-17T07:32:54;1.00;;;1.00;;
33152;SDS011;19509;43.862;26.176;2024-03-17T07:35:19;0.90;;;0.90;;
33152;SDS011;19509;43.862;26.176;2024-03-17T07:37:46;1.17;;;1.07;;
33152;SDS011;19509;43.862;26.176;2024-03-17T07:40:12;1.00;;;1.00;;
33152;SDS011;19509;43.862;26.176;2024-03-17T07:42:37;0.80;;;0.80;;
33152;SDS011;19509;43.862;26.176;2024-03-17T07:45:02;0.90;;;0.90;;
33152;SDS011;19509;43.862;26.176;2024-03-17T07:47:29;0.90;;;0.90;;
33152;SDS011;19509;43.862;26.176;2024-03-17T07:50:03;0.80;;;0.80;;
33152;SDS011;19509;43.862;26.176;2024-03-17T07:52:31;0.90;;;0.90;;
33152;SDS011;19509;43.862;26.176;2024-03-17T07:54:57;0.90;;;0.90;;
33152;SDS011;19509;43.862;26.176;2024-03-17T07:57:22;0.80;;;0.80;;
33152;SDS011;19509;43.862;26.176;2024-03-17T07:59:51;0.80;;;0.80;;
33152;SDS011;19509;43.862;26.176;2024-03-17T08:02:16;0.87;;;0.87;;
33152;SDS011;19509;43.862;26.176;2024-03-17T08:04:42;0.70;;;0.70;;
33152;SDS011;19509;43.862;26.176;2024-03-17T08:07:09;0.80;;;0.80;;
33152;SDS011;19509;43.862;26.176;2024-03-17T08:09:35;0.80;;;0.80;;
33152;SDS011;19509;43.862;26.176;2024-03-17T08:12:00;0.80;;;0.80;;
33152;SDS011;19509;43.862;26.176;2024-03-17T08:14:27;0.80;;;0.80;;
33152;SDS011;19509;43.862;26.176;2024-03-17T08:16:52;1.00;;;1.00;;
33152;SDS011;19509;43.862;26.176;2024-03-17T08:19:17;0.80;;;0.80;;
33152;SDS011;19509;43.862;26.176;2024-03-17T08:21:43;0.80;;;0.80;;
33152;SDS011;19509;43.862;26.176;2024-03-17T08:24:10;0.80;;;0.80;;
33152;SDS011;19509;43.862;26.176;2024-03-17T08:26:35;0.80;;;0.80;;
33152;SDS011;19509;43.862;26.176;2024-03-17T08:29:01;0.70;;;0.70;;
33152;SDS011;19509;43.862;26.176;2024-03-17T08:31:26;0.60;;;0.60;;
33152;SDS011;19509;43.862;26.176;2024-03-17T08:33:51;0.90;;;0.90;;
33152;SDS011;19509;43.862;26.176;2024-03-17T08:36:17;0.70;;;0.70;;
33152;SDS011;19509;43.862;26.176;2024-03-17T08:38:44;0.80;;;0.80;;
33152;SDS011;19509;43.862;26.176;2024-03-17T08:41:09;0.80;;;0.80;;
33152;SDS011;19509;43.862;26.176;2024-03-17T08:43:36;0.80;;;0.80;;
33152;SDS011;19509;43.862;26.176;2024-03-17T08:46:05;0.70;;;0.70;;
33152;SDS011;19509;43.862;26.176;2024-03-17T08:48:32;0.70;;;0.70;;
33152;SDS011;19509;43.862;26.176;2024-03-17T08:50:58;0.80;;;0.80;;
33152;SDS011;19509;43.862;26.176;2024-03-17T08:53:24;0.90;;;0.90;;
33152;SDS011;19509;43.862;26.176;2024-03-17T08:55:49;0.80;;;0.80;;
33152;SDS011;19509;43.862;26.176;2024-03-17T08:58:15;0.80;;;0.80;;
33152;SDS011;19509;43.862;26.176;2024-03-17T09:00:40;0.60;;;0.60;;
33152;SDS011;19509;43.862;26.176;2024-03-17T09:03:06;0.70;;;0.70;;
33152;SDS011;19509;43.862;26.176;2024-03-17T09:05:35;0.70;;;0.70;;
33152;SDS011;19509;43.862;26.176;2024-03-17T09:08:01;0.60;;;0.60;;
33152;SDS011;19509;43.862;26.176;2024-03-17T09:10:26;0.60;;;0.60;;
33152;SDS011;19509;43.862;26.176;2024-03-17T09:12:51;0.80;;;0.80;;
33152;SDS011;19509;43.862;26.176;2024-03-17T09:15:17;0.80;;;0.80;;
33152;SDS011;19509;43.862;26.176;2024-03-17T09:17:42;0.80;;;0.80;;
33152;SDS011;19509;43.862;26.176;2024-03-17T09:20:09;0.70;;;0.70;;
33152;SDS011;19509;43.862;26.176;2024-03-17T09:22:37;0.80;;;0.80;;
33152;SDS011;19509;43.862;26.176;2024-03-17T09:25:04;0.60;;;0.60;;
33152;SDS011;19509;43.862;26.176;2024-03-17T09:27:30;0.90;;;0.90;;
33152;SDS011;19509;43.862;26.176;2024-03-17T09:29:56;0.60;;;0.60;;
33152;SDS011;19509;43.862;26.176;2024-03-17T09:32:21;0.60;;;0.60;;
33152;SDS011;19509;43.862;26.176;2024-03-17T09:34:47;0.80;;;0.80;;
33152;SDS011;19509;43.862;26.176;2024-03-17T09:37:15;0.60;;;0.60;;
33152;SDS011;19509;43.862;26.176;2024-03-17T09:39:41;0.60;;;0.60;;
33152;SDS011;19509;43.862;26.176;2024-03-17T09:42:07;0.60;;;0.60;;
33152;SDS011;19509;43.862;26.176;2024-03-17T09:44:41;0.73;;;0.73;;
33152;SDS011;19509;43.862;26.176;2024-03-17T09:47:06;0.53;;;0.53;;
33152;SDS011;19509;43.862;26.176;2024-03-17T09:49:32;0.70;;;0.70;;
33152;SDS011;19509;43.862;26.176;2024-03-17T09:51:58;0.70;;;0.70;;
33152;SDS011;19509;43.862;26.176;2024-03-17T09:54:24;0.60;;;0.60;;
33152;SDS011;19509;43.862;26.176;2024-03-17T09:56:49;0.60;;;0.60;;
33152;SDS011;19509;43.862;26.176;2024-03-17T09:59:15;0.60;;;0.60;;
33152;SDS011;19509;43.862;26.176;2024-03-17T10:01:41;0.70;;;0.70;;
33152;SDS011;19509;43.862;26.176;2024-03-17T10:04:07;0.60;;;0.60;;
33152;SDS011;19509;43.862;26.176;2024-03-17T10:06:35;0.53;;;0.53;;
33152;SDS011;19509;43.862;26.176;2024-03-17T10:09:09;0.80;;;0.80;;
33152;SDS011;19509;43.862;26.176;2024-03-17T10:11:46;0.80;;;0.80;;
33152;SDS011;19509;43.862;26.176;2024-03-17T10:14:12;0.63;;;0.63;;
33152;SDS011;19509;43.862;26.176;2024-03-17T10:16:41;0.60;;;0.60;;
33152;SDS011;19509;43.862;26.176;2024-03-17T10:19:10;0.50;;;0.50;;
33152;SDS011;19509;43.862;26.176;2024-03-17T10:21:36;0.57;;;0.57;;
33152;SDS011;19509;43.862;26.176;2024-03-17T10:24:07;0.83;;;0.60;;
33152;SDS011;19509;43.862;26.176;2024-03-17T10:26:35;0.50;;;0.50;;
33152;SDS011;19509;43.862;26.176;2024-03-17T10:29:01;0.80;;;0.80;;
33152;SDS011;19509;43.862;26.176;2024-03-17T10:31:26;0.80;;;0.80;;
33152;SDS011;19509;43.862;26.176;2024-03-17T10:34:00;0.60;;;0.60;;
33152;SDS011;19509;43.862;26.176;2024-03-17T10:36:26;0.50;;;0.50;;
33152;SDS011;19509;43.862;26.176;2024-03-17T10:38:51;0.53;;;0.53;;
33152;SDS011;19509;43.862;26.176;2024-03-17T10:41:18;0.57;;;0.57;;
33152;SDS011;19509;43.862;26.176;2024-03-17T10:43:45;0.60;;;0.60;;
33152;SDS011;19509;43.862;26.176;2024-03-17T10:46:11;0.70;;;0.70;;
33152;SDS011;19509;43.862;26.176;2024-03-17T10:48:38;1.00;;;1.00;;
33152;SDS011;19509;43.862;26.176;2024-03-17T10:51:04;0.90;;;0.90;;
33152;SDS011;19509;43.862;26.176;2024-03-17T10:53:30;1.03;;;0.80;;
33152;SDS011;19509;43.862;26.176;2024-03-17T10:56:05;0.63;;;0.63;;
33152;SDS011;19509;43.862;26.176;2024-03-17T10:58:35;0.50;;;0.50;;
33152;SDS011;19509;43.862;26.176;2024-03-17T11:01:01;0.80;;;0.80;;
33152;SDS011;19509;43.862;26.176;2024-03-17T11:03:32;0.60;;;0.60;;
33152;SDS011;19509;43.862;26.176;2024-03-17T11:05:58;0.70;;;0.70;;
33152;SDS011;19509;43.862;26.176;2024-03-17T11:08:24;0.63;;;0.63;;
33152;SDS011;19509;43.862;26.176;2024-03-17T11:10:51;0.50;;;0.50;;
33152;SDS011;19509;43.862;26.176;2024-03-17T11:13:23;0.50;;;0.50;;
33152;SDS011;19509;43.862;26.176;2024-03-17T11:15:49;0.60;;;0.60;;
33152;SDS011;19509;43.862;26.176;2024-03-17T11:23:33;0.50;;;0.50;;
33152;SDS011;19509;43.862;26.176;2024-03-17T11:25:59;0.50;;;0.50;;
33152;SDS011;19509;43.862;26.176;2024-03-17T11:31:43;0.60;;;0.60;;
33152;SDS011;19509;43.862;26.176;2024-03-17T11:36:53;0.50;;;0.50;;
33152;SDS011;19509;43.862;26.176;2024-03-17T11:39:19;0.60;;;0.60;;
33152;SDS011;19509;43.862;26.176;2024-03-17T11:41:49;0.60;;;0.60;;
33152;SDS011;19509;43.862;26.176;2024-03-17T11:46:50;0.60;;;0.60;;
33152;SDS011;19509;43.862;26.176;2024-03-17T11:49:19;0.50;;;0.50;;
33152;SDS011;19509;43.862;26.176;2024-03-17T11:51:45;0.50;;;0.50;;
33152;SDS011;19509;43.862;26.176;2024-03-17T11:54:15;0.50;;;0.50;;
33152;SDS011;19509;43.862;26.176;2024-03-17T11:56:43;0.50;;;0.50;;
33152;SDS011;19509;43.862;26.176;2024-03-17T11:59:10;0.60;;;0.60;;
33152;SDS011;19509;43.862;26.176;2024-03-17T12:01:36;0.60;;;0.60;;
33152;SDS011;19509;43.862;26.176;2024-03-17T12:04:01;0.67;;;0.67;;
33152;SDS011;19509;43.862;26.176;2024-03-17T12:06:30;0.60;;;0.60;;
33152;SDS011;19509;43.862;26.176;2024-03-17T12:09:41;0.50;;;0.50;;
33152;SDS011;19509;43.862;26.176;2024-03-17T12:11:42;0.50;;;0.50;;
33152;SDS011;19509;43.862;26.176;2024-03-17T12:14:17;0.60;;;0.60;;
33152;SDS011;19509;43.862;26.176;2024-03-17T12:17:03;0.50;;;0.50;;
33152;SDS011;19509;43.862;26.176;2024-03-17T12:19:29;0.53;;;0.53;;
33152;SDS011;19509;43.862;26.176;2024-03-17T12:21:55;0.60;;;0.60;;
33152;SDS011;19509;43.862;26.176;2024-03-17T12:24:22;0.50;;;0.50;;
33152;SDS011;19509;43.862;26.176;2024-03-17T12:26:48;0.60;;;0.60;;
33152;SDS011;19509;43.862;26.176;2024-03-17T12:29:32;0.70;;;0.70;;
33152;SDS011;19509;43.862;26.176;2024-03-17T12:31:59;0.60;;;0.60;;
33152;SDS011;19509;43.862;26.176;2024-03-17T12:34:27;0.50;;;0.50;;
33152;SDS011;19509;43.862;26.176;2024-03-17T12:36:53;0.60;;;0.60;;
33152;SDS011;19509;43.862;26.176;2024-03-17T12:44:28;0.50;;;0.50;;
33152;SDS011;19509;43.862;26.176;2024-03-17T12:46:55;0.57;;;0.57;;
33152;SDS011;19509;43.862;26.176;2024-03-17T12:49:21;0.60;;;0.60;;
33152;SDS011;19509;43.862;26.176;2024-03-17T12:51:47;0.50;;;0.50;;
33152;SDS011;19509;43.862;26.176;2024-03-17T12:54:12;0.60;;;0.60;;
33152;SDS011;19509;43.862;26.176;2024-03-17T12:56:38;0.60;;;0.60;;
33152;SDS011;19509;43.862;26.176;2024-03-17T12:59:22;0.50;;;0.50;;
33152;SDS011;19509;43.862;26.176;2024-03-17T13:02:15;0.50;;;0.50;;
33152;SDS011;19509;43.862;26.176;2024-03-17T13:04:41;0.47;;;0.47;;
33152;SDS011;19509;43.862;26.176;2024-03-17T13:07:10;0.60;;;0.60;;
33152;SDS011;19509;43.862;26.176;2024-03-17T13:09:35;0.53;;;0.53;;
33152;SDS011;19509;43.862;26.176;2024-03-17T13:12:01;0.50;;;0.50;;
33152;SDS011;19509;43.862;26.176;2024-03-17T13:14:26;0.40;;;0.40;;
33152;SDS011;19509;43.862;26.176;2024-03-17T13:16:52;0.60;;;0.60;;
33152;SDS011;19509;43.862;26.176;2024-03-17T13:19:17;0.50;;;0.50;;
33152;SDS011;19509;43.862;26.176;2024-03-17T13:21:42;0.60;;;0.60;;
33152;SDS011;19509;43.862;26.176;2024-03-17T13:24:08;0.40;;;0.40;;
33152;SDS011;19509;43.862;26.176;2024-03-17T13:26:33;0.50;;;0.50;;
33152;SDS011;19509;43.862;26.176;2024-03-17T13:28:59;0.60;;;0.60;;
33152;SDS011;19509;43.862;26.176;2024-03-17T13:31:24;0.50;;;0.50;;
33152;SDS011;19509;43.862;26.176;2024-03-17T13:33:49;0.60;;;0.60;;
33152;SDS011;19509;43.862;26.176;2024-03-17T13:36:15;0.50;;;0.50;;
33152;SDS011;19509;43.862;26.176;2024-03-17T13:38:41;0.57;;;0.57;;
33152;SDS011;19509;43.862;26.176;2024-03-17T13:41:06;0.60;;;0.60;;
33152;SDS011;19509;43.862;26.176;2024-03-17T13:43:31;0.40;;;0.40;;
33152;SDS011;19509;43.862;26.176;2024-03-17T13:45:57;0.60;;;0.60;;
33152;SDS011;19509;43.862;26.176;2024-03-17T13:48:23;0.60;;;0.60;;
33152;SDS011;19509;43.862;26.176;2024-03-17T13:50:48;0.57;;;0.57;;
33152;SDS011;19509;43.862;26.176;2024-03-17T13:53:14;0.60;;;0.60;;
33152;SDS011;19509;43.862;26.176;2024-03-17T13:55:40;0.60;;;0.60;;
33152;SDS011;19509;43.862;26.176;2024-03-17T13:58:05;0.70;;;0.70;;
33152;SDS011;19509;43.862;26.176;2024-03-17T14:00:31;0.60;;;0.60;;
33152;SDS011;19509;43.862;26.176;2024-03-17T14:02:57;0.70;;;0.70;;
33152;SDS011;19509;43.862;26.176;2024-03-17T14:05:23;0.70;;;0.70;;
33152;SDS011;19509;43.862;26.176;2024-03-17T14:07:48;0.63;;;0.63;;
33152;SDS011;19509;43.862;26.176;2024-03-17T14:10:15;0.60;;;0.60;;
33152;SDS011;19509;43.862;26.176;2024-03-17T14:12:41;0.70;;;0.70;;
33152;SDS011;19509;43.862;26.176;2024-03-17T14:15:07;0.67;;;0.67;;
33152;SDS011;19509;43.862;26.176;2024-03-17T14:17:35;0.67;;;0.67;;
33152;SDS011;19509;43.862;26.176;2024-03-17T14:20:01;0.60;;;0.60;;
33152;SDS011;19509;43.862;26.176;2024-03-17T14:22:26;0.60;;;0.60;;
33152;SDS011;19509;43.862;26.176;2024-03-17T14:24:51;0.50;;;0.50;;
33152;SDS011;19509;43.862;26.176;2024-03-17T14:27:17;0.60;;;0.60;;
33152;SDS011;19509;43.862;26.176;2024-03-17T14:29:45;0.67;;;0.67;;
33152;SDS011;19509;43.862;26.176;2024-03-17T14:32:10;0.50;;;0.50;;
33152;SDS011;19509;43.862;26.176;2024-03-17T14:34:37;0.63;;;0.63;;
33152;SDS011;19509;43.862;26.176;2024-03-17T14:37:03;0.60;;;0.60;;
33152;SDS011;19509;43.862;26.176;2024-03-17T14:39:29;0.57;;;0.57;;
33152;SDS011;19509;43.862;26.176;2024-03-17T14:41:55;0.70;;;0.70;;
33152;SDS011;19509;43.862;26.176;2024-03-17T14:44:20;0.70;;;0.70;;
33152;SDS011;19509;43.862;26.176;2024-03-17T14:46:46;0.60;;;0.60;;
33152;SDS011;19509;43.862;26.176;2024-03-17T14:49:12;0.60;;;0.60;;